Time;durP1;ratioP1;P1;durP2;ratioP2;P2;SDS_P1;SDS_P2;PMS_P1;PMS_P2;Temp;Humidity;BMP_temperature;BMP_pressure;BME280_temperature;BME280_humidity;BME280_pressure;Samples;Min_cycle;Max_cycle;Signal;HPM_P1;HPM_P2
2023/06/26 00:00:50;;;;;;;6.25;5.53;;;19.80;83.80;;;19.89;63.40;97180.13;5020144;28;20045;-37
2023/06/26 00:03:15;;;;;;;7.18;5.97;;;19.80;83.80;;;19.90;63.60;97184.50;5023122;28;20164;-38
2023/06/26 00:05:42;;;;;;;7.13;5.30;;;19.80;83.80;;;19.80;63.90;97170.13;5022423;28;20506;-38
2023/06/26 00:08:08;;;;;;;6.45;5.22;;;19.80;84.00;;;19.86;64.95;97176.81;5026125;28;20391;-38
2023/06/26 00:10:34;;;;;;;9.73;5.85;;;19.80;84.60;;;19.74;65.04;97157.22;5024134;28;20518;-38
2023/06/26 00:13:01;;;;;;;7.97;5.95;;;19.80;84.70;;;19.80;64.87;97170.13;5020356;28;20099;-38
2023/06/26 00:15:31;;;;;;;8.88;5.88;;;19.70;84.90;;;19.81;64.53;97171.81;5019573;28;20544;-38
2023/06/26 00:17:59;;;;;;;7.82;5.97;;;19.80;84.60;;;19.82;63.54;97178.88;5022842;28;20178;-38
2023/06/26 00:20:25;;;;;;;7.88;5.93;;;19.70;85.10;;;19.81;63.98;97178.06;5028288;28;20033;-37
2023/06/26 00:22:51;;;;;;;8.32;6.25;;;19.70;84.40;;;19.79;65.30;97171.09;5026075;28;20477;-38
2023/06/26 00:25:16;;;;;;;8.00;5.78;;;19.70;85.10;;;19.75;65.23;97178.50;5022002;28;20037;-38
2023/06/26 00:27:42;;;;;;;8.52;5.85;;;19.70;85.30;;;19.75;64.42;97175.84;5024167;28;20044;-38
2023/06/26 00:30:09;;;;;;;9.35;5.90;;;19.70;84.90;;;19.73;64.01;97169.75;5028824;28;20025;-38
2023/06/26 00:32:34;;;;;;;8.80;6.18;;;19.70;84.60;;;19.82;61.53;97179.72;5033310;28;20044;-38
2023/06/26 00:35:00;;;;;;;7.45;6.07;;;19.80;83.50;;;19.96;60.06;97177.81;5021667;28;21905;-37
2023/06/26 00:37:26;;;;;;;7.72;5.97;;;19.90;82.90;;;20.02;60.09;97166.63;5028448;28;20090;-38
2023/06/26 00:39:51;;;;;;;9.40;6.57;;;20.00;82.70;;;20.07;59.48;97171.63;5030418;28;20744;-38
2023/06/26 00:42:18;;;;;;;8.57;5.80;;;20.00;82.40;;;20.13;59.09;97168.44;5027111;28;20041;-37
2023/06/26 00:44:44;;;;;;;6.40;5.53;;;20.10;82.10;;;20.17;59.38;97169.91;5024852;28;20044;-38
2023/06/26 00:47:14;;;;;;;8.38;5.90;;;20.10;82.20;;;20.18;58.05;97169.78;5029397;28;20467;-37
2023/06/26 00:49:40;;;;;;;8.55;5.55;;;20.10;81.50;;;20.21;58.57;97166.88;5009454;28;20024;-38
2023/06/26 00:52:06;;;;;;;8.93;5.60;;;20.20;81.90;;;20.22;59.12;97157.00;5027175;28;20044;-38
2023/06/26 00:54:32;;;;;;;7.85;6.15;;;20.20;82.10;;;20.26;58.10;97173.66;5024310;28;20033;-38
2023/06/26 00:56:58;;;;;;;8.40;6.35;;;20.20;81.70;;;20.29;57.18;97166.25;5019149;28;20157;-38
2023/06/26 00:59:24;;;;;;;6.85;5.80;;;20.20;81.10;;;20.32;57.64;97163.31;5004756;28;20037;-37
2023/06/26 01:01:49;;;;;;;7.75;5.82;;;20.30;81.50;;;20.33;57.24;97158.81;5021658;28;20031;-38
2023/06/26 01:04:18;;;;;;;8.65;6.28;;;20.30;81.30;;;20.33;57.60;97153.47;5021176;28;20033;-38
2023/06/26 01:06:49;;;;;;;7.97;5.93;;;20.20;81.40;;;20.29;56.45;97147.50;5026886;28;20194;-39
2023/06/26 01:09:22;;;;;;;10.57;6.70;;;20.30;80.70;;;20.38;55.27;97151.25;5017841;28;20063;-38
2023/06/26 01:11:48;;;;;;;9.02;5.65;;;20.30;80.00;;;20.40;55.55;97152.84;4999927;28;20120;-37
2023/06/26 01:14:14;;;;;;;6.82;5.68;;;20.40;80.00;;;20.40;56.02;97152.84;5023148;28;20028;-38
2023/06/26 01:16:41;;;;;;;6.47;5.45;;;20.40;80.20;;;20.34;56.33;97145.31;5002908;28;20064;-38
2023/06/26 01:19:14;;;;;;;7.93;6.00;;;20.30;80.60;;;20.32;57.31;97151.78;5021167;28;20558;-37
2023/06/26 01:21:43;;;;;;;7.95;5.72;;;20.30;81.20;;;20.24;57.96;97152.38;5004398;28;20094;-38
2023/06/26 01:24:20;;;;;;;7.70;5.90;;;20.20;81.80;;;20.12;58.22;97140.81;5005361;28;20136;-38
2023/06/26 01:26:48;;;;;;;6.35;5.03;;;20.10;82.00;;;20.12;58.62;97154.22;5026144;28;20031;-38
2023/06/26 01:29:17;;;;;;;6.60;5.32;;;20.10;82.20;;;20.06;59.69;97151.16;5007353;28;20017;-38
2023/06/26 01:31:46;;;;;;;8.15;5.40;;;20.00;82.80;;;19.98;60.90;97149.94;5005708;28;20308;-37
2023/06/26 01:34:12;;;;;;;7.78;6.05;;;19.90;83.50;;;19.90;61.64;97151.53;5003983;28;20032;-37
2023/06/26 01:36:38;;;;;;;7.80;5.43;;;19.90;84.10;;;19.83;61.76;97143.16;5022496;28;20971;-38
2023/06/26 01:39:04;;;;;;;7.75;6.10;;;19.80;84.30;;;19.75;62.86;97141.06;5023400;28;20483;-38
2023/06/26 01:41:30;;;;;;;8.52;5.70;;;19.70;84.60;;;19.68;63.46;97144.31;5024923;28;20139;-38
2023/06/26 01:44:11;;;;;;;7.45;5.20;;;19.70;85.10;;;19.60;64.45;97143.06;5029915;28;20124;-38
2023/06/26 01:47:04;;;;;;;8.23;5.60;;;19.60;85.70;;;19.52;65.83;97140.13;5023414;28;20040;-38
2023/06/26 01:50:00;;;;;;;6.70;5.20;;;19.50;86.60;;;19.44;67.31;97135.38;5007934;28;20028;-37
2023/06/26 01:52:42;;;;;;;7.68;5.88;;;19.50;87.50;;;19.39;67.95;97142.91;5005781;28;20037;-38
2023/06/26 01:55:40;;;;;;;6.37;5.07;;;19.40;87.80;;;19.32;69.20;97138.16;5025456;28;20503;-37
2023/06/26 01:58:06;;;;;;;7.15;5.60;;;19.30;88.40;;;19.25;70.70;97133.25;5007053;28;20033;-38
2023/06/26 02:00:33;;;;;;;7.85;5.78;;;19.20;89.30;;;19.18;72.53;97134.69;5018475;28;20161;-38
2023/06/26 02:02:59;;;;;;;6.30;5.20;;;19.10;90.00;;;19.09;73.44;97130.06;5023350;28;20037;-38
2023/06/26 02:05:24;;;;;;;8.20;5.57;;;19.10;90.30;;;19.03;74.40;97133.22;5019431;28;20079;-37
2023/06/26 02:07:51;;;;;;;8.38;5.97;;;19.00;90.50;;;18.95;75.98;97133.78;5021560;28;20033;-37
2023/06/26 02:10:17;;;;;;;6.65;5.15;;;19.00;90.90;;;18.90;74.49;97133.28;5006138;28;20120;-38
2023/06/26 02:12:43;;;;;;;6.97;5.13;;;18.90;90.70;;;18.91;74.16;97136.78;5020379;28;20556;-38
2023/06/26 02:15:09;;;;;;;9.02;5.45;;;18.90;90.60;;;18.87;75.05;97133.50;5001704;28;20032;-37
2023/06/26 02:17:34;;;;;;;7.90;5.85;;;18.80;90.80;;;18.82;76.03;97131.16;5021326;28;20151;-38
2023/06/26 02:20:00;;;;;;;7.22;5.40;;;18.80;91.00;;;18.77;76.80;97130.66;5026577;28;20506;-38
2023/06/26 02:22:28;;;;;;;6.95;5.43;;;18.70;91.20;;;18.73;76.08;97136.31;5014123;28;20568;-38
2023/06/26 02:24:54;;;;;;;7.93;5.78;;;18.70;91.20;;;18.72;75.43;97134.59;5016960;28;20021;-38
2023/06/26 02:27:19;;;;;;;7.28;5.30;;;18.70;91.00;;;18.67;75.56;97134.97;5023321;28;20491;-37
2023/06/26 02:29:45;;;;;;;7.32;5.15;;;18.70;91.10;;;18.66;75.17;97134.13;5027266;28;20087;-37
2023/06/26 02:32:11;;;;;;;7.70;5.55;;;18.70;91.10;;;18.66;76.53;97138.59;5023513;28;20041;-38
2023/06/26 02:34:36;;;;;;;6.38;5.18;;;18.70;91.40;;;18.64;76.98;97137.84;5025669;28;20037;-39
2023/06/26 02:37:03;;;;;;;6.82;5.28;;;18.60;91.50;;;18.60;77.76;97131.03;5024618;28;20041;-38
2023/06/26 02:39:28;;;;;;;6.60;4.97;;;18.60;91.70;;;18.58;77.58;97130.31;5022939;28;20055;-38
2023/06/26 02:41:54;;;;;;;7.05;5.40;;;18.60;91.70;;;18.48;77.70;97120.31;5023545;28;20459;-37
2023/06/26 02:44:21;;;;;;;5.88;5.25;;;18.60;91.80;;;18.51;78.55;97130.72;5014173;28;20044;-37
2023/06/26 02:46:46;;;;;;;7.65;5.18;;;18.50;91.90;;;18.49;78.62;97127.31;5015454;28;20024;-37
2023/06/26 02:49:12;;;;;;;7.30;5.30;;;18.50;92.00;;;18.47;79.08;97128.41;5020582;28;20033;-38
2023/06/26 02:51:38;;;;;;;6.97;5.15;;;18.50;92.10;;;18.45;78.24;97131.19;5022332;28;20040;-38
2023/06/26 02:54:04;;;;;;;8.57;5.90;;;18.50;92.00;;;18.43;78.30;97126.91;5024081;28;20041;-38
2023/06/26 02:56:29;;;;;;;9.05;5.65;;;18.50;92.00;;;18.41;77.79;97126.19;5022397;28;20483;-37
2023/06/26 02:58:56;;;;;;;8.45;5.22;;;18.50;92.00;;;18.41;77.54;97135.06;5023771;28;20056;-38
2023/06/26 03:01:21;;;;;;;5.82;5.10;;;18.40;91.90;;;18.39;77.96;97131.63;5013898;28;20041;-38
2023/06/26 03:03:47;;;;;;;7.20;5.60;;;18.40;92.10;;;18.38;78.50;97129.94;5015733;28;20088;-38
2023/06/26 03:06:14;;;;;;;7.57;5.07;;;18.40;92.20;;;18.39;78.57;97130.78;5020532;28;20672;-38
2023/06/26 03:08:40;;;;;;;6.20;5.20;;;18.40;92.30;;;18.36;78.76;97125.66;5019452;28;20495;-38
2023/06/26 03:11:07;;;;;;;7.72;5.47;;;18.40;92.40;;;18.35;79.06;97129.31;5019106;28;20033;-39
2023/06/26 03:13:35;;;;;;;7.38;5.20;;;18.30;92.40;;;18.32;78.83;97135.72;5026171;28;20495;-38
2023/06/26 03:16:00;;;;;;;6.72;5.25;;;18.40;92.40;;;18.29;78.78;97128.78;5024191;28;20494;-39
2023/06/26 03:18:27;;;;;;;7.88;5.28;;;18.30;92.50;;;18.28;78.62;97128.88;5016721;28;20028;-38
2023/06/26 03:20:56;;;;;;;9.95;6.40;;;18.30;92.60;;;18.28;77.01;97126.22;5016238;28;20041;-38
2023/06/26 03:23:22;;;;;;;6.85;5.40;;;18.30;92.50;;;18.32;77.11;97125.03;5019948;28;20084;-38
2023/06/26 03:25:49;;;;;;;7.97;6.20;;;18.40;92.30;;;18.39;77.24;97130.78;5023118;28;20053;-38
2023/06/26 03:28:15;;;;;;;7.20;5.40;;;18.40;92.40;;;18.40;77.20;97128.00;5028167;28;20035;-38
2023/06/26 03:30:41;;;;;;;7.05;5.43;;;18.40;92.40;;;18.41;77.21;97129.72;5026484;28;20062;-38
2023/06/26 03:33:06;;;;;;;8.68;6.00;;;18.40;92.30;;;18.43;77.04;97129.59;5021745;28;20498;-38
2023/06/26 03:35:32;;;;;;;7.50;5.47;;;18.40;92.40;;;18.43;76.46;97126.91;5022557;28;20040;-39
2023/06/26 03:37:58;;;;;;;7.05;5.70;;;18.50;92.30;;;18.45;76.62;97136.53;5020317;28;20279;-37
2023/06/26 03:40:24;;;;;;;10.13;5.60;;;18.50;92.30;;;18.49;75.81;97131.81;5014725;28;20461;-37
2023/06/26 03:42:50;;;;;;;8.30;5.85;;;18.50;92.20;;;18.53;73.74;97133.28;5022325;28;20029;-37
2023/06/26 03:45:16;;;;;;;7.00;5.53;;;18.50;91.80;;;18.59;74.30;97134.66;5018925;28;20437;-39
2023/06/26 03:47:41;;;;;;;8.52;5.80;;;18.60;91.90;;;18.60;73.16;97128.38;5019006;28;20025;-37
2023/06/26 03:50:08;;;;;;;11.05;6.22;;;18.60;91.80;;;18.69;72.11;97139.22;5013740;28;20029;-39
2023/06/26 03:52:33;;;;;;;9.18;5.90;;;18.70;91.60;;;18.72;69.95;97132.81;5028024;28;20036;-38
2023/06/26 03:55:00;;;;;;;8.82;5.97;;;18.80;91.20;;;18.88;69.35;97146.75;5027842;28;20150;-37
2023/06/26 03:57:26;;;;;;;7.32;5.25;;;18.80;91.00;;;18.93;69.70;97146.38;5032561;28;20029;-38
2023/06/26 03:59:53;;;;;;;7.63;5.50;;;18.90;91.00;;;19.01;68.95;97144.00;5024165;28;20037;-37
2023/06/26 04:02:19;;;;;;;7.80;6.13;;;19.00;90.90;;;19.02;67.40;97136.84;5018909;28;20031;-38
2023/06/26 04:04:44;;;;;;;8.88;6.15;;;19.10;90.60;;;19.16;66.55;97139.31;5020725;28;20021;-39
2023/06/26 04:07:10;;;;;;;8.75;5.95;;;19.10;90.40;;;19.26;64.54;97142.16;5018831;28;20030;-37
2023/06/26 04:09:36;;;;;;;7.70;5.68;;;19.20;89.80;;;19.35;65.21;97149.47;5030653;28;20116;-38
2023/06/26 04:12:02;;;;;;;9.65;5.63;;;19.30;90.00;;;19.44;63.08;97139.88;5027520;28;20040;-37
2023/06/26 04:14:28;;;;;;;8.23;6.07;;;19.50;89.00;;;19.60;63.05;97142.25;5024515;28;20033;-38
2023/06/26 04:16:54;;;;;;;7.68;5.75;;;19.60;89.00;;;19.69;62.67;97148.69;5020068;28;20032;-38
2023/06/26 04:19:19;;;;;;;6.40;5.18;;;19.70;88.80;;;19.80;60.91;97148.72;5025613;28;21592;-37
2023/06/26 04:21:45;;;;;;;7.95;5.00;;;19.80;88.00;;;19.91;61.30;97159.44;5028394;28;20056;-37
2023/06/26 04:24:11;;;;;;;6.65;5.40;;;19.90;87.90;;;19.97;62.09;97148.25;5027712;28;20399;-37
2023/06/26 04:26:37;;;;;;;6.88;5.20;;;19.90;88.40;;;19.99;62.38;97149.00;5021603;28;20029;-38
2023/06/26 04:29:03;;;;;;;5.75;4.90;;;20.00;88.50;;;20.08;61.50;97154.56;5020550;28;20029;-37
2023/06/26 04:31:29;;;;;;;6.05;5.15;;;20.00;88.20;;;20.11;63.02;97148.97;5013674;28;20040;-39
2023/06/26 04:33:55;;;;;;;6.00;4.68;;;20.10;88.80;;;20.08;63.91;97144.75;5022396;28;20039;-38
2023/06/26 04:36:21;;;;;;;7.97;5.65;;;20.10;89.40;;;20.17;64.41;97151.16;5024379;28;20035;-39
2023/06/26 04:38:49;;;;;;;6.93;5.20;;;20.10;89.80;;;20.18;65.19;97151.03;5026133;28;20036;-38
2023/06/26 04:41:15;;;;;;;6.53;4.90;;;20.20;90.00;;;20.21;67.17;97147.28;5021490;28;20033;-38
2023/06/26 04:43:41;;;;;;;8.07;5.32;;;20.20;90.50;;;20.24;67.55;97149.69;5023601;28;20036;-38
2023/06/26 04:46:06;;;;;;;6.85;4.90;;;20.20;90.60;;;20.26;67.76;97153.13;5021813;28;20028;-38
2023/06/26 04:48:32;;;;;;;6.53;5.10;;;20.20;90.60;;;20.26;68.55;97147.78;5020476;28;20029;-38
2023/06/26 04:50:58;;;;;;;7.43;5.05;;;20.20;90.80;;;20.29;68.26;97147.50;5016956;28;20564;-38
2023/06/26 04:53:25;;;;;;;7.60;5.65;;;20.30;90.80;;;20.33;68.29;97145.41;5026856;28;20048;-38
2023/06/26 04:55:54;;;;;;;8.93;5.05;;;20.30;90.80;;;20.37;67.47;97142.38;5029659;28;20032;-38
2023/06/26 04:58:20;;;;;;;7.55;5.82;;;20.40;90.70;;;20.43;65.28;97145.56;5017172;28;20041;-38
2023/06/26 05:00:46;;;;;;;6.28;5.35;;;20.40;90.30;;;20.50;65.16;97147.59;5020634;28;20668;-39
2023/06/26 05:03:12;;;;;;;8.05;5.22;;;20.50;90.50;;;20.59;64.56;97143.31;5027382;28;20513;-38
2023/06/26 05:05:38;;;;;;;7.88;5.03;;;20.60;90.00;;;20.65;64.96;97147.34;5027088;28;20029;-38
2023/06/26 05:08:18;;;;;;;6.15;4.93;;;20.60;90.10;;;20.71;64.66;97142.34;5028083;28;20509;-38
2023/06/26 05:10:45;;;;;;;7.55;5.40;;;20.70;90.00;;;20.79;65.65;97142.56;5020707;28;20075;-38
2023/06/26 05:13:11;;;;;;;6.28;4.93;;;20.80;90.30;;;20.79;65.53;97122.94;5016289;28;20571;-38
2023/06/26 05:15:37;;;;;;;7.05;5.60;;;20.80;90.30;;;20.95;65.22;97135.94;5020443;28;20025;-38
2023/06/26 05:18:02;;;;;;;7.68;5.53;;;20.90;90.20;;;21.03;63.55;97132.59;5024471;28;20475;-38
2023/06/26 05:20:28;;;;;;;7.03;5.43;;;21.00;89.80;;;21.17;62.64;97138.53;5024516;28;21019;-38
2023/06/26 05:22:54;;;;;;;5.82;4.80;;;21.10;89.40;;;21.33;65.26;97145.25;5023748;28;20026;-38
2023/06/26 05:25:21;;;;;;;8.50;5.97;;;21.20;90.40;;;21.69;64.05;97146.66;5023265;28;20033;-38
2023/06/26 05:27:48;;;;;;;8.23;5.68;;;21.40;90.40;;;22.08;59.79;97148.69;5001738;28;20029;-38
2023/06/26 05:30:14;;;;;;;8.90;5.68;;;21.70;89.10;;;22.43;57.22;97144.75;5018764;28;20040;-42
2023/06/26 05:32:40;;;;;;;7.05;5.57;;;21.90;87.80;;;23.04;54.07;97150.00;5027918;28;20591;-42
2023/06/26 05:35:07;;;;;;;7.30;5.30;;;22.30;85.80;;;23.64;52.18;97138.19;5017580;28;20062;-40
2023/06/26 05:37:34;;;;;;;7.05;5.72;;;22.70;84.90;;;23.94;50.72;97155.13;5026507;28;20029;-40
2023/06/26 05:40:00;;;;;;;10.60;5.20;;;23.00;83.70;;;23.91;51.15;97158.13;5027535;28;21834;-40
2023/06/26 05:42:28;;;;;;;8.32;5.28;;;23.20;83.20;;;23.76;51.51;97153.19;5025221;28;20061;-41
2023/06/26 05:44:54;;;;;;;7.40;5.65;;;23.20;83.20;;;23.58;52.28;97157.59;5019298;28;20068;-42
2023/06/26 05:47:19;;;;;;;7.82;5.38;;;23.30;83.20;;;23.42;52.30;97160.88;5013028;28;20297;-40
2023/06/26 05:49:45;;;;;;;6.85;5.80;;;23.20;82.60;;;23.31;52.21;97161.00;5011835;28;20028;-40
2023/06/26 05:52:11;;;;;;;9.20;6.10;;;23.20;82.10;;;23.24;52.32;97156.22;5019118;28;20037;-40
2023/06/26 05:54:37;;;;;;;8.88;5.60;;;23.20;82.00;;;23.24;51.27;97161.59;5020275;28;20090;-41
2023/06/26 05:57:04;;;;;;;7.95;6.25;;;23.20;81.50;;;23.33;51.75;97162.59;5026491;28;20029;-40
2023/06/26 05:59:31;;;;;;;6.63;5.22;;;23.20;81.40;;;23.42;52.05;97160.88;5016056;28;20060;-40
2023/06/26 06:01:57;;;;;;;8.07;5.93;;;23.40;81.90;;;23.51;51.90;97162.72;5023394;28;20025;-40
2023/06/26 06:04:23;;;;;;;7.30;5.72;;;23.40;81.60;;;23.63;51.26;97160.69;5024501;28;20978;-41
2023/06/26 06:06:49;;;;;;;8.45;6.18;;;23.50;81.20;;;23.77;52.09;97160.25;5028363;28;20040;-40
2023/06/26 06:09:14;;;;;;;7.88;5.90;;;23.70;81.90;;;23.94;51.06;97161.38;5020596;28;20131;-39
2023/06/26 06:11:41;;;;;;;10.63;6.25;;;23.80;81.00;;;24.13;49.74;97160.44;5021218;28;20060;-40
2023/06/26 06:14:07;;;;;;;8.05;6.18;;;24.00;79.90;;;24.30;50.09;97149.88;5013881;28;20025;-38
2023/06/26 06:16:32;;;;;;;8.00;5.63;;;24.10;80.00;;;24.48;49.69;97152.63;5020522;28;20052;-38
2023/06/26 06:18:58;;;;;;;6.50;5.35;;;24.30;79.80;;;24.64;49.43;97152.88;5027047;28;20589;-40
2023/06/26 06:21:24;;;;;;;9.55;6.20;;;24.40;80.20;;;24.80;48.89;97151.34;5024835;28;20185;-39
2023/06/26 06:23:49;;;;;;;9.80;5.50;;;24.60;78.90;;;24.98;48.38;97156.75;5024893;28;20029;-39
2023/06/26 06:26:15;;;;;;;8.68;5.97;;;24.80;78.50;;;25.14;48.78;97154.22;5027254;28;20033;-39
2023/06/26 06:28:41;;;;;;;7.10;5.40;;;24.90;79.00;;;25.31;49.09;97160.66;5022605;28;20240;-38
2023/06/26 06:31:06;;;;;;;7.78;6.00;;;25.10;79.50;;;25.43;45.63;97163.94;5025636;28;20048;-38
2023/06/26 06:33:32;;;;;;;8.52;6.40;;;25.20;75.60;;;25.55;47.51;97164.56;5020509;28;20491;-39
2023/06/26 06:35:58;;;;;;;8.30;6.30;;;25.30;77.60;;;25.66;47.14;97159.78;5028406;28;20033;-38
2023/06/26 06:38:24;;;;;;;7.68;5.97;;;25.40;77.70;;;25.80;47.00;97165.59;5020720;28;20083;-38
2023/06/26 06:40:49;;;;;;;7.45;5.72;;;25.50;77.00;;;25.96;46.06;97164.91;5026563;28;20461;-38
2023/06/26 06:43:15;;;;;;;10.80;7.30;;;25.70;76.30;;;25.86;47.55;97162.25;5026558;28;20044;-39
2023/06/26 06:45:41;;;;;;;9.15;6.63;;;25.70;77.50;;;25.95;47.45;97165.91;5010041;28;20033;-39
2023/06/26 06:48:07;;;;;;;8.52;6.53;;;25.70;77.70;;;26.01;46.95;97165.28;4992806;28;20534;-39
2023/06/26 06:50:32;;;;;;;9.02;7.03;;;25.70;77.10;;;26.06;47.69;97173.75;5020566;28;20029;-41
2023/06/26 06:52:58;;;;;;;7.85;6.38;;;25.80;78.30;;;26.19;48.02;97176.03;5022655;28;20075;-41
2023/06/26 06:55:25;;;;;;;7.60;5.88;;;25.90;78.50;;;26.35;47.82;97178.81;5023013;28;20037;-41
2023/06/26 06:57:51;;;;;;;9.50;6.53;;;26.00;78.30;;;26.46;46.69;97175.81;5025893;28;20025;-40
2023/06/26 07:00:17;;;;;;;8.43;6.47;;;26.10;77.30;;;26.55;46.45;97181.25;5020953;28;20029;-40
2023/06/26 07:02:44;;;;;;;11.02;6.25;;;26.10;76.60;;;26.62;45.43;97176.94;5028976;28;20415;-39
2023/06/26 07:05:10;;;;;;;8.82;6.75;;;26.20;75.70;;;26.65;46.35;97171.19;5006273;28;20024;-40
2023/06/26 07:07:38;;;;;;;10.07;7.07;;;26.30;76.70;;;26.61;45.56;97180.63;5024912;28;20416;-40
2023/06/26 07:10:11;;;;;;;7.90;6.30;;;26.30;75.40;;;26.63;46.05;97173.19;5020463;28;20090;-39
2023/06/26 07:12:37;;;;;;;7.70;5.57;;;26.30;75.70;;;26.69;45.80;97163.59;5027067;28;20431;-41
2023/06/26 07:15:05;;;;;;;8.02;6.65;;;26.40;76.00;;;26.79;44.05;97173.28;5024543;28;20056;-40
2023/06/26 07:17:32;;;;;;;7.88;6.22;;;26.50;73.90;;;26.89;44.07;97173.13;5023353;28;20052;-38
2023/06/26 07:20:01;;;;;;;8.00;5.78;;;26.60;73.90;;;26.98;44.30;97174.84;5019419;28;20116;-39
2023/06/26 07:22:26;;;;;;;6.97;5.60;;;26.70;74.10;;;27.09;44.03;97173.69;5016618;28;20036;-37
2023/06/26 07:24:52;;;;;;;8.90;6.80;;;26.80;73.90;;;27.14;42.94;97176.72;5020517;28;20441;-38
2023/06/26 07:27:20;;;;;;;9.52;6.20;;;26.90;72.60;;;27.19;44.10;97178.94;5026472;28;20056;-39
2023/06/26 07:29:46;;;;;;;7.82;5.93;;;26.90;73.50;;;27.31;44.12;97174.06;5020446;28;20040;-39
2023/06/26 07:32:12;;;;;;;9.98;6.82;;;27.00;73.70;;;27.43;44.67;97176.28;5019318;28;20033;-39
2023/06/26 07:34:37;;;;;;;7.78;6.22;;;27.20;74.20;;;27.54;44.21;97176.97;5025620;28;20112;-39
2023/06/26 07:39:34;;;;;;;8.57;6.75;;;27.30;73.40;;;27.60;42.17;97182.56;5057354;28;20529;-34
2023/06/26 07:42:00;;;;;;;7.07;5.50;;;27.30;70.90;;;27.74;42.83;97183.72;5062667;28;20043;-34
2023/06/26 07:44:26;;;;;;;7.78;5.40;;;27.40;71.90;;;27.81;42.27;97178.47;5055718;28;20040;-35
2023/06/26 07:46:52;;;;;;;6.50;5.85;;;27.50;71.50;;;27.96;42.12;97182.22;5059284;28;20035;-35
2023/06/26 07:49:17;;;;;;;6.68;5.53;;;27.60;71.20;;;28.10;41.25;97186.13;5064361;28;20504;-35
2023/06/26 07:51:43;;;;;;;8.80;6.00;;;27.80;69.90;;;28.21;41.20;97182.19;5067623;28;20598;-35
2023/06/26 07:54:09;;;;;;;9.10;5.72;;;27.90;69.90;;;28.32;42.02;97187.22;5054210;28;20031;-35
2023/06/26 07:56:56;;;;;;;11.10;6.45;;;28.00;70.70;;;28.28;39.64;97185.91;5055472;28;20072;-35
2023/06/26 07:59:23;;;;;;;7.43;6.15;;;28.10;67.20;;;28.22;40.41;97181.16;5062294;28;20212;-35
2023/06/26 08:01:51;;;;;;;8.32;6.57;;;27.90;68.30;;;28.25;40.12;97186.25;5062889;28;20032;-35
2023/06/26 08:04:19;;;;;;;7.18;5.40;;;28.00;67.80;;;28.30;39.81;97185.69;5062904;28;20027;-35
2023/06/26 08:06:47;;;;;;;6.10;5.30;;;28.00;67.10;;;28.39;40.49;97181.97;5061804;28;20031;-35
2023/06/26 08:09:13;;;;;;;7.93;6.03;;;28.10;67.70;;;28.45;39.53;97175.00;5065379;28;20039;-35
2023/06/26 08:11:39;;;;;;;6.20;5.30;;;28.20;67.60;;;28.58;39.55;97169.03;5090609;22;20047;-89
2023/06/26 08:14:04;;;;;;;7.97;6.07;;;28.20;67.30;;;28.36;40.29;97145.19;5042786;28;20024;-90
2023/06/26 08:16:30;;;;;;;7.43;5.65;;;28.30;68.00;;;28.38;39.40;97124.16;5040741;28;20058;-90
2023/06/26 08:18:56;;;;;;;8.07;5.03;;;28.40;66.90;;;28.73;40.30;97167.25;5045442;28;20071;-90
2023/06/26 08:21:21;;;;;;;6.50;5.43;;;28.40;67.60;;;28.55;40.23;97138.53;5047192;28;20059;-90
2023/06/26 08:23:47;;;;;;;8.20;5.70;;;28.50;67.20;;;28.82;40.28;97157.22;5027246;28;20063;-90
2023/06/26 08:26:14;;;;;;;10.73;5.60;;;28.60;68.30;;;28.75;38.61;97147.09;5052039;28;20031;-90
2023/06/26 08:28:39;;;;;;;6.00;4.75;;;28.60;65.10;;;28.88;38.81;97161.94;5050033;28;20157;-90
2023/06/26 08:31:05;;;;;;;6.63;5.45;;;28.60;65.30;;;29.00;38.60;97160.53;5046044;28;20028;-90
2023/06/26 08:33:33;;;;;;;6.28;4.97;;;28.70;65.10;;;28.61;38.72;97093.56;5035820;28;20064;-91
2023/06/26 08:35:59;;;;;;;8.90;5.03;;;28.80;65.30;;;29.07;38.57;97169.63;5046305;28;20105;-91
2023/06/26 08:38:24;;;;;;;5.07;4.57;;;28.80;65.80;;;29.02;37.59;97152.16;5049530;28;20035;-91
2023/06/26 08:40:50;;;;;;;5.93;4.80;;;28.80;63.40;;;28.97;39.60;97125.59;5052732;28;20268;-91
2023/06/26 08:43:16;;;;;;;7.10;5.68;;;28.90;64.80;;;29.29;38.51;97151.69;5034648;28;20066;-90
2023/06/26 08:45:42;;;;;;;5.47;4.50;;;29.00;65.70;;;29.19;37.85;97121.22;5052428;28;20039;-90
2023/06/26 08:48:09;;;;;;;5.43;4.65;;;29.10;64.00;;;29.44;38.26;97153.63;5045994;28;20513;-90
2023/06/26 08:50:39;;;;;;;5.55;4.47;;;29.20;64.10;;;29.23;39.17;97089.94;5048044;28;20211;-91
2023/06/26 08:53:27;;;;;;;6.22;4.50;;;29.30;66.50;;;29.75;39.33;97169.00;5050722;28;20148;-90
2023/06/26 08:55:54;;;;;;;5.93;4.80;;;29.40;64.50;;;29.83;38.18;97158.91;5048685;28;20114;-90
2023/06/26 08:58:20;;;;;;;7.50;4.90;;;29.50;65.70;;;29.67;37.37;97140.84;5035715;28;20047;-90
2023/06/26 09:00:46;;;;;;;5.35;4.82;;;29.50;64.10;;;29.70;36.97;97150.50;5032835;28;20078;-91
2023/06/26 09:03:13;;;;;;;5.53;4.78;;;29.50;62.50;;;29.80;37.54;97145.69;5050639;28;20096;-90
2023/06/26 09:05:39;;;;;;;7.07;5.18;;;29.60;64.30;;;29.65;40.57;97113.03;5034606;28;20021;-90
2023/06/26 09:08:07;;;;;;;5.68;4.63;;;29.70;67.30;;;29.88;39.17;97134.75;5035262;28;20032;-91
2023/06/26 09:10:34;;;;;;;6.72;4.85;;;29.80;66.50;;;30.04;36.24;97147.31;5051836;28;20755;-91
2023/06/26 09:13:01;;;;;;;9.05;5.15;;;29.80;62.50;;;30.11;36.17;97162.88;5057877;28;20041;-91
2023/06/26 09:15:43;;;;;;;7.63;4.95;;;29.90;61.30;;;29.93;36.37;97120.56;5052262;28;20055;-91
2023/06/26 09:18:09;;;;;;;6.90;5.10;;;29.90;63.20;;;30.29;36.32;97157.09;5048990;28;20117;-90
2023/06/26 09:20:35;;;;;;;5.13;4.63;;;30.00;61.90;;;30.40;35.88;97154.78;5051052;28;20023;-91
2023/06/26 09:23:03;;;;;;;6.03;4.88;;;30.10;60.70;;;30.47;35.42;97154.00;5053238;28;20115;-91
2023/06/26 09:25:37;;;;;;;5.22;4.60;;;30.20;60.10;;;30.47;36.06;97137.69;5033988;28;20392;-91
2023/06/26 09:28:06;;;;;;;4.85;4.35;;;30.30;61.10;;;30.74;35.76;97147.03;5053168;28;20131;-92
2023/06/26 09:30:33;;;;;;;6.72;5.35;;;30.50;60.70;;;30.45;35.83;97069.84;5051054;28;20028;-91
2023/06/26 09:33:17;;;;;;;8.05;5.18;;;30.60;60.70;;;30.61;35.53;97101.44;5039385;28;20028;-91
2023/06/26 09:35:47;;;;;;;7.03;5.03;;;30.70;59.60;;;30.98;35.03;97140.44;5033246;28;20032;-91
2023/06/26 09:38:14;;;;;;;5.55;4.80;;;30.80;60.10;;;31.24;35.09;97153.50;5048566;28;20759;-92
2023/06/26 09:40:41;;;;;;;9.10;5.05;;;31.10;59.60;;;31.51;34.59;97151.06;5031603;28;20038;-90
2023/06/26 09:43:09;;;;;;;6.53;5.43;;;31.30;59.50;;;31.54;33.56;97151.50;5033151;28;20032;-91
2023/06/26 09:45:38;;;;;;;8.65;4.70;;;31.40;58.00;;;31.72;34.16;97145.59;5050855;28;20131;-92
2023/06/26 09:48:07;;;;;;;5.95;4.90;;;31.60;58.00;;;31.49;33.76;97077.69;5054777;28;20419;-92
2023/06/26 09:50:34;;;;;;;6.90;5.03;;;31.80;58.30;;;32.12;33.87;97132.31;5066231;28;20310;-91
2023/06/26 09:53:11;;;;;;;6.22;4.97;;;32.00;58.20;;;32.37;33.29;97150.88;5040466;28;20132;-92
2023/06/26 09:55:37;;;;;;;5.32;4.82;;;32.10;57.20;;;32.27;33.03;97140.34;5021657;28;20082;-91
2023/06/26 09:58:06;;;;;;;7.32;5.22;;;32.10;57.70;;;31.93;33.73;97112.00;5011118;28;20137;-93
2023/06/26 10:00:32;;;;;;;6.60;5.38;;;31.90;57.60;;;31.55;34.39;97095.16;5031091;28;20033;-93
2023/06/26 10:03:01;;;;;;;6.60;5.07;;;31.70;58.40;;;31.36;34.32;97113.78;5032923;28;20061;-91
2023/06/26 10:05:27;;;;;;;7.45;5.55;;;31.40;58.10;;;31.00;34.83;97111.97;5027437;28;20894;-91
2023/06/26 10:07:55;;;;;;;5.68;5.10;;;31.10;58.20;;;30.94;35.35;97128.22;5028189;28;20036;-92
2023/06/26 10:10:23;;;;;;;5.55;4.80;;;30.80;58.90;;;30.49;35.77;97087.50;5036357;28;20032;-91
2023/06/26 10:12:51;;;;;;;5.95;4.97;;;30.60;59.90;;;30.34;36.93;97094.84;5015302;28;20472;-92
2023/06/26 10:15:19;;;;;;;6.93;5.55;;;30.40;61.10;;;30.24;37.26;97082.34;5036309;28;20051;-91
2023/06/26 10:17:47;;;;;;;8.07;5.68;;;30.40;62.30;;;30.30;37.06;97066.31;5040299;28;20029;-91
2023/06/26 10:20:15;;;;;;;8.85;5.32;;;30.50;61.70;;;30.37;36.72;97089.03;5026050;28;20510;-90